Time;durP1;ratioP1;P1;durP2;ratioP2;P2;SDS_P1;SDS_P2;PMS_P1;PMS_P2;Temp;Humidity;BMP_temperature;BMP_pressure;BME280_temperature;BME280_humidity;BME280_pressure;Samples;Min_cycle;Max_cycle;Signal;HPM_P1;HPM_P2
2021/11/16 00:00:03;;;;;;;;;;;;;;;4.66;85.70;97367.75;30001;982;1886;-57
2021/11/16 00:00:36;;;;;;;;;;;;;;;4.65;86.06;97360.72;30001;983;1881;-59
2021/11/16 00:01:08;;;;;;;;;;;;;;;4.66;85.73;97363.19;30001;983;1863;-57
2021/11/16 00:01:39;;;;;;;;;;;;;;;4.67;85.70;97367.50;30001;983;1872;-59
2021/11/16 00:02:10;;;;;;;;;;;;;;;4.68;85.67;97366.44;30001;983;1881;-58
2021/11/16 00:02:41;;;;;;;;;;;;;;;4.68;85.49;97366.44;30001;983;1877;-59
2021/11/16 00:03:12;;;;;;;;;;;;;;;4.66;85.55;97365.88;30001;983;1864;-58
2021/11/16 00:03:43;;;;;;;;;;;;;;;4.66;85.50;97368.56;30001;983;1872;-58
2021/11/16 00:04:14;;;;;;;;;;;;;;;4.65;85.52;97366.94;30001;983;1881;-59
2021/11/16 00:04:47;;;;;;;;;;;;;;;4.65;85.72;97372.28;30001;982;1877;-59
2021/11/16 00:05:18;;;;;;;;;;;;;;;4.65;85.67;97372.28;30001;982;1881;-59
2021/11/16 00:05:49;;;;;;;;;;;;;;;4.64;85.87;97370.66;30001;982;1877;-59
2021/11/16 00:06:20;;;;;;;;;;;;;;;4.65;85.83;97366.09;30001;982;1882;-58
2021/11/16 00:06:53;;;;;;;;;;;;;;;4.64;86.02;97370.66;30001;982;1860;-58
2021/11/16 00:07:24;;;;;;;;;;;;;;;4.63;85.91;97368.22;30001;982;1877;-60
2021/11/16 00:07:56;;;;;;;;;;;;;;;4.63;85.91;97373.59;30001;983;1877;-55
2021/11/16 00:08:27;;;;;;;;;;;;;;;4.61;85.74;97364.97;30001;983;1881;-58
2021/11/16 00:08:59;;;;;;;;;;;;;;;4.62;86.03;97372.78;30001;983;1877;-60
2021/11/16 00:09:30;;;;;;;;;;;;;;;4.62;85.84;97367.41;30001;983;1881;-58
2021/11/16 00:10:02;;;;;;;;;;;;;;;4.62;85.97;97362.03;30001;983;1876;-59
2021/11/16 00:10:34;;;;;;;;;;;;;;;4.64;85.98;97369.84;30001;983;1881;-59
2021/11/16 00:11:05;;;;;;;;;;;;;;;4.64;85.83;97361.78;30001;983;1877;-59
2021/11/16 00:11:35;;;;;;;;;;;;;;;4.65;86.03;97372.28;30001;983;1881;-58
2021/11/16 00:12:07;;;;;;;;;;;;;;;4.64;86.06;97370.66;30001;982;1859;-58
2021/11/16 00:12:38;;;;;;;;;;;;;;;4.64;85.89;97369.84;30001;982;1877;-55
2021/11/16 00:13:11;;;;;;;;;;;;;;;4.63;86.17;97369.03;30001;982;1877;-58
2021/11/16 00:13:42;;;;;;;;;;;;;;;4.63;86.06;97371.72;30001;982;1882;-59
2021/11/16 00:14:13;;;;;;;;;;;;;;;4.62;86.12;97372.78;30001;982;1860;-58
2021/11/16 00:14:44;;;;;;;;;;;;;;;4.62;85.84;97378.16;30001;982;1877;-58
2021/11/16 00:15:14;;;;;;;;;;;;;;;4.62;86.00;97378.16;30001;982;1877;-58
2021/11/16 00:15:45;;;;;;;;;;;;;;;4.61;86.26;97371.16;30001;983;1881;-58
2021/11/16 00:16:17;;;;;;;;;;;;;;;4.62;86.11;97367.41;30001;983;1877;-59
2021/11/16 00:16:48;;;;;;;;;;;;;;;4.62;85.84;97372.78;30001;983;1881;-55
2021/11/16 00:17:18;;;;;;;;;;;;;;;4.63;86.18;97376.28;30001;983;1859;-58
2021/11/16 00:17:50;;;;;;;;;;;;;;;4.62;86.02;97375.47;30001;983;1877;-57
2021/11/16 00:18:26;;;;;;;;;;;;;;;4.63;86.10;97373.59;30001;983;1877;-59
2021/11/16 00:19:00;;;;;;;;;;;;;;;4.62;86.04;97372.78;30001;983;1881;-59
2021/11/16 00:19:31;;;;;;;;;;;;;;;4.64;86.17;97372.53;30001;982;1877;-59
2021/11/16 00:20:04;;;;;;;;;;;;;;;4.62;85.77;97372.78;30001;982;1881;-58
2021/11/16 00:20:40;;;;;;;;;;;;;;;4.63;85.86;97370.91;30001;982;1877;-59
2021/11/16 00:21:13;;;;;;;;;;;;;;;4.64;85.79;97372.53;30001;982;1864;-56
2021/11/16 00:21:45;;;;;;;;;;;;;;;4.64;86.02;97373.34;30001;982;1873;-60
2021/11/16 00:22:18;;;;;;;;;;;;;;;4.64;85.95;97367.97;30001;983;1881;-59
2021/11/16 00:22:49;;;;;;;;;;;;;;;4.64;86.12;97367.97;30001;983;1876;-60
2021/11/16 00:23:22;;;;;;;;;;;;;;;4.63;86.30;97371.72;30001;983;1881;-56
2021/11/16 00:23:56;;;;;;;;;;;;;;;4.63;85.94;97371.72;30001;983;1877;-60
2021/11/16 00:24:43;;;;;;;;;;;;;;;4.63;86.03;97369.03;30001;983;1881;-58
2021/11/16 00:25:20;;;;;;;;;;;;;;;4.64;86.32;97370.66;30001;983;1877;-59
2021/11/16 00:25:55;;;;;;;;;;;;;;;4.64;86.43;97373.34;30001;983;1881;-59
2021/11/16 00:26:26;;;;;;;;;;;;;;;4.64;86.40;97372.53;30001;983;1859;-57
2021/11/16 00:26:57;;;;;;;;;;;;;;;4.63;86.47;97371.72;30001;983;1877;-58
2021/11/16 00:27:27;;;;;;;;;;;;;;;4.64;86.33;97375.22;30001;982;1877;-59
2021/11/16 00:27:58;;;;;;;;;;;;;;;4.64;86.55;97372.53;30001;982;1881;-59
2021/11/16 00:28:29;;;;;;;;;;;;;;;4.64;86.39;97376.03;30001;982;1877;-58
2021/11/16 00:29:01;;;;;;;;;;;;;;;4.64;86.67;97378.72;30001;982;1864;-59
2021/11/16 00:29:35;;;;;;;;;;;;;;;4.63;86.67;97369.03;30001;982;1873;-59
2021/11/16 00:30:07;;;;;;;;;;;;;;;4.63;86.65;97370.91;30001;983;1881;-58
2021/11/16 00:30:39;;;;;;;;;;;;;;;4.64;86.60;97375.22;30001;983;1877;-59
2021/11/16 00:31:09;;;;;;;;;;;;;;;4.64;86.58;97376.03;30001;983;1881;-59
2021/11/16 00:31:41;;;;;;;;;;;;;;;4.63;86.68;97369.03;30001;983;1877;-59
2021/11/16 00:32:11;;;;;;;;;;;;;;;4.63;87.12;97366.34;30001;983;1881;-58
2021/11/16 00:32:43;;;;;;;;;;;;;;;4.63;86.77;97374.41;30001;983;1877;-58
2021/11/16 00:33:14;;;;;;;;;;;;;;;4.64;86.97;97369.84;30001;983;1881;-58
2021/11/16 00:33:45;;;;;;;;;;;;;;;4.64;86.83;97373.34;30001;983;1877;-59
2021/11/16 00:34:16;;;;;;;;;;;;;;;4.63;86.88;97371.72;30001;983;1864;-56
2021/11/16 00:34:47;;;;;;;;;;;;;;;4.64;86.99;97375.22;30001;982;1873;-59
2021/11/16 00:35:18;;;;;;;;;;;;;;;4.63;87.06;97369.03;30001;982;1881;-59
2021/11/16 00:35:49;;;;;;;;;;;;;;;4.63;86.72;97363.66;30001;982;1877;-60
2021/11/16 00:36:20;;;;;;;;;;;;;;;4.63;86.97;97373.59;30001;982;1882;-58
2021/11/16 00:36:52;;;;;;;;;;;;;;;4.63;86.78;97374.41;30001;982;1877;-60
2021/11/16 00:37:27;;;;;;;;;;;;;;;4.61;86.72;97373.84;30001;983;1881;-59
2021/11/16 00:37:58;;;;;;;;;;;;;;;4.61;87.01;97370.34;30001;983;1876;-59
2021/11/16 00:38:32;;;;;;;;;;;;;;;4.60;87.01;97371.37;30001;983;1881;-59
2021/11/16 00:39:03;;;;;;;;;;;;;;;4.60;87.29;97374.91;30001;983;1859;-59
2021/11/16 00:39:35;;;;;;;;;;;;;;;4.60;86.92;97377.59;30001;983;1877;-59
2021/11/16 00:40:11;;;;;;;;;;;;;;;4.60;87.04;97376.78;30001;983;1877;-59
2021/11/16 00:40:43;;;;;;;;;;;;;;;4.58;86.86;97377.00;30001;983;1881;-59
2021/11/16 00:41:13;;;;;;;;;;;;;;;4.59;86.76;97380.50;30001;983;1877;-59
2021/11/16 00:41:44;;;;;;;;;;;;;;;4.59;87.05;97378.63;30001;983;1881;-59
2021/11/16 00:42:15;;;;;;;;;;;;;;;4.60;86.78;97380.28;30001;982;1877;-59
2021/11/16 00:42:47;;;;;;;;;;;;;;;4.59;86.92;97375.94;30001;982;1881;-58
2021/11/16 00:43:18;;;;;;;;;;;;;;;4.61;86.96;97383.78;30001;982;1877;-58
2021/11/16 00:43:49;;;;;;;;;;;;;;;4.63;86.76;97379.78;30001;982;1864;-58
2021/11/16 00:44:20;;;;;;;;;;;;;;;4.63;87.09;97379.78;30001;982;1873;-59
2021/11/16 00:44:52;;;;;;;;;;;;;;;4.64;86.64;97381.41;30001;983;1881;-58
2021/11/16 00:45:22;;;;;;;;;;;;;;;4.66;86.66;97375.81;30001;983;1859;-57
2021/11/16 00:45:53;;;;;;;;;;;;;;;4.66;86.81;97375.81;30001;983;1876;-59
2021/11/16 00:46:24;;;;;;;;;;;;;;;4.66;86.79;97375.81;30001;983;1877;-59
2021/11/16 00:46:55;;;;;;;;;;;;;;;4.65;86.78;97377.69;30001;983;1864;-59
2021/11/16 00:47:26;;;;;;;;;;;;;;;4.66;86.91;97379.31;30001;983;1872;-59
2021/11/16 00:47:56;;;;;;;;;;;;;;;4.65;86.62;97377.69;30001;983;1881;-59
2021/11/16 00:48:27;;;;;;;;;;;;;;;4.66;86.95;97378.50;30001;983;1877;-59
2021/11/16 00:48:58;;;;;;;;;;;;;;;4.66;86.76;97383.88;30001;983;1881;-59
2021/11/16 00:49:29;;;;;;;;;;;;;;;4.65;86.83;97377.69;30001;983;1877;-59
2021/11/16 00:50:00;;;;;;;;;;;;;;;4.65;86.82;97376.84;30001;982;1881;-59
2021/11/16 00:50:31;;;;;;;;;;;;;;;4.65;86.48;97377.69;30001;982;1859;-59
2021/11/16 00:51:03;;;;;;;;;;;;;;;4.65;86.73;97374.16;30001;982;1877;-59
2021/11/16 00:51:34;;;;;;;;;;;;;;;4.65;86.68;97388.44;30001;982;1877;-60
2021/11/16 00:52:06;;;;;;;;;;;;;;;4.66;86.71;97381.19;30001;982;1864;-58
2021/11/16 00:52:37;;;;;;;;;;;;;;;4.65;86.87;97376.84;30001;983;1872;-59
2021/11/16 00:53:09;;;;;;;;;;;;;;;4.65;86.62;97377.69;30001;983;1881;-59
2021/11/16 00:53:41;;;;;;;;;;;;;;;4.65;86.64;97377.69;30001;983;1876;-59
2021/11/16 00:54:11;;;;;;;;;;;;;;;4.66;86.53;97373.94;30001;983;1881;-59
2021/11/16 00:54:43;;;;;;;;;;;;;;;4.68;86.39;97377.19;30001;983;1877;-60
2021/11/16 00:55:14;;;;;;;;;;;;;;;4.67;86.41;97383.62;30001;983;1881;-59
2021/11/16 00:55:45;;;;;;;;;;;;;;;4.68;86.37;97376.38;30001;983;1859;-59
2021/11/16 00:56:16;;;;;;;;;;;;;;;4.67;86.15;97375.56;30001;983;1877;-58
2021/11/16 00:56:47;;;;;;;;;;;;;;;4.68;86.22;97387.13;30001;982;1877;-58
2021/11/16 00:57:18;;;;;;;;;;;;;;;4.67;86.00;97380.94;30001;982;1864;-59
2021/11/16 00:57:49;;;;;;;;;;;;;;;4.67;86.12;97386.31;30001;982;1855;-59
2021/11/16 00:58:19;;;;;;;;;;;;;;;4.67;86.25;97386.31;30001;982;1882;-58
2021/11/16 00:58:50;;;;;;;;;;;;;;;4.67;86.38;97386.31;30001;982;1877;-56
2021/11/16 00:59:21;;;;;;;;;;;;;;;4.68;86.05;97387.94;30001;982;1882;-59
2021/11/16 00:59:52;;;;;;;;;;;;;;;4.67;86.43;97380.94;30001;983;1876;-58
2021/11/16 01:00:23;;;;;;;;;;;;;;;4.67;86.35;97386.31;30001;983;1881;-60
2021/11/16 01:00:54;;;;;;;;;;;;;;;4.67;86.41;97380.13;30001;983;1877;-59
2021/11/16 01:01:25;;;;;;;;;;;;;;;4.68;86.25;97381.75;30001;983;1881;-58
2021/11/16 01:01:56;;;;;;;;;;;;;;;4.67;86.28;97383.62;30001;983;1877;-58
2021/11/16 01:02:27;;;;;;;;;;;;;;;4.66;86.06;97384.69;30001;983;1864;-56
2021/11/16 01:02:58;;;;;;;;;;;;;;;4.65;86.03;97383.06;30001;983;1855;-58
2021/11/16 01:03:30;;;;;;;;;;;;;;;4.65;85.83;97385.75;30001;983;1881;-58
2021/11/16 01:04:01;;;;;;;;;;;;;;;4.64;85.81;97386.78;30001;982;1877;-56
2021/11/16 01:04:32;;;;;;;;;;;;;;;4.63;85.90;97384.34;30001;982;1881;-60
2021/11/16 01:05:03;;;;;;;;;;;;;;;4.64;85.82;97386.78;30001;982;1877;-60
2021/11/16 01:05:35;;;;;;;;;;;;;;;4.63;85.86;97390.53;30001;982;1882;-58
2021/11/16 01:06:06;;;;;;;;;;;;;;;4.65;85.95;97390.31;30001;982;1877;-59
2021/11/16 01:06:37;;;;;;;;;;;;;;;4.66;86.23;97389.25;30001;982;1882;-59
2021/11/16 01:07:07;;;;;;;;;;;;;;;4.66;86.41;97384.69;30001;982;1877;-59
2021/11/16 01:07:39;;;;;;;;;;;;;;;4.66;86.35;97390.06;30001;983;1863;-60
2021/11/16 01:08:11;;;;;;;;;;;;;;;4.68;86.41;97392.50;30001;983;1872;-59
2021/11/16 01:08:42;;;;;;;;;;;;;;;4.68;86.26;97396.00;30001;983;1863;-58
2021/11/16 01:09:13;;;;;;;;;;;;;;;4.68;86.26;97390.62;30001;983;1872;-59
2021/11/16 01:09:45;;;;;;;;;;;;;;;4.67;86.44;97389.00;30001;983;1881;-58
2021/11/16 01:10:17;;;;;;;;;;;;;;;4.68;86.48;97393.31;30001;983;1877;-58
2021/11/16 01:10:48;;;;;;;;;;;;;;;4.67;86.38;97391.69;30001;983;1881;-59
2021/11/16 01:11:19;;;;;;;;;;;;;;;4.68;86.42;97390.62;30001;983;1877;-58
2021/11/16 01:11:50;;;;;;;;;;;;;;;4.68;86.44;97389.81;30001;982;1881;-59
2021/11/16 01:12:22;;;;;;;;;;;;;;;4.68;86.34;97387.13;30001;982;1877;-59
2021/11/16 01:12:53;;;;;;;;;;;;;;;4.67;86.15;97390.88;30001;982;1864;-58
2021/11/16 01:13:25;;;;;;;;;;;;;;;4.65;86.33;97385.75;30001;982;1873;-56
2021/11/16 01:13:56;;;;;;;;;;;;;;;4.66;86.31;97390.06;30001;982;1864;-57
2021/11/16 01:14:27;;;;;;;;;;;;;;;4.66;86.51;97386.56;30001;982;1873;-59
2021/11/16 01:14:58;;;;;;;;;;;;;;;4.67;86.19;97385.50;30001;983;1863;-59
2021/11/16 01:15:30;;;;;;;;;;;;;;;4.65;85.79;97393.81;30001;983;1872;-59
2021/11/16 01:16:02;;;;;;;;;;;;;;;4.64;85.66;97392.16;30001;983;1881;-59
2021/11/16 01:16:33;;;;;;;;;;;;;;;4.64;86.25;97386.78;30001;983;1877;-58
2021/11/16 01:17:04;;;;;;;;;;;;;;;4.65;86.03;97393.81;30001;983;1881;-59
2021/11/16 01:17:35;;;;;;;;;;;;;;;4.65;86.34;97388.44;30001;983;1877;-59
2021/11/16 01:18:07;;;;;;;;;;;;;;;4.67;86.34;97391.69;30001;983;1881;-59
2021/11/16 01:18:38;;;;;;;;;;;;;;;4.68;85.98;97387.13;30001;983;1877;-58
2021/11/16 01:19:09;;;;;;;;;;;;;;;4.70;86.10;97391.22;30001;982;1881;-58
2021/11/16 01:19:41;;;;;;;;;;;;;;;4.72;86.01;97391.78;30001;982;1877;-57
2021/11/16 01:20:12;;;;;;;;;;;;;;;4.75;85.46;97387.78;30001;982;1864;-58
2021/11/16 01:20:44;;;;;;;;;;;;;;;4.75;85.58;97382.41;30001;982;1873;-59
2021/11/16 01:21:15;;;;;;;;;;;;;;;4.76;85.23;97391.28;30001;982;1864;-59
2021/11/16 01:21:46;;;;;;;;;;;;;;;4.77;85.14;97390.25;30001;982;1873;-59
2021/11/16 01:22:17;;;;;;;;;;;;;;;4.77;85.02;97387.56;30001;982;1882;-59
2021/11/16 01:22:49;;;;;;;;;;;;;;;4.79;85.13;97388.13;30001;983;1876;-59
2021/11/16 01:23:20;;;;;;;;;;;;;;;4.78;84.60;97389.19;30001;983;1881;-60
2021/11/16 01:23:51;;;;;;;;;;;;;;;4.79;84.75;97388.13;30001;983;1877;-59
2021/11/16 01:24:22;;;;;;;;;;;;;;;4.80;84.54;97387.88;30001;983;1864;-60
2021/11/16 01:24:52;;;;;;;;;;;;;;;4.80;84.55;97390.56;30001;983;1872;-58
2021/11/16 01:25:26;;;;;;;;;;;;;;;4.80;84.86;97387.06;30001;983;1881;-59
2021/11/16 01:25:59;;;;;;;;;;;;;;;4.80;84.50;97384.38;30001;983;1877;-58
2021/11/16 01:26:31;;;;;;;;;;;;;;;4.80;84.56;97389.75;30001;983;1881;-59
2021/11/16 01:27:02;;;;;;;;;;;;;;;4.78;84.64;97397.25;30001;982;1877;-58
2021/11/16 01:27:35;;;;;;;;;;;;;;;4.77;84.61;97390.25;30001;964;1900;-59
2021/11/16 01:28:10;;;;;;;;;;;;;;;4.76;84.68;97388.59;30001;982;1860;-58
2021/11/16 01:28:41;;;;;;;;;;;;;;;4.74;84.60;97383.47;30001;982;1877;-58
2021/11/16 01:29:13;;;;;;;;;;;;;;;4.72;84.60;97389.09;30001;983;1876;-59
2021/11/16 01:29:46;;;;;;;;;;;;;;;4.74;84.89;97385.34;30001;983;1881;-59
2021/11/16 01:30:21;;;;;;;;;;;;;;;4.69;84.87;97378.81;30001;983;1877;-59
2021/11/16 01:30:55;;;;;;;;;;;;;;;4.65;85.09;97379.53;30001;983;1881;-59
2021/11/16 01:31:27;;;;;;;;;;;;;;;4.62;85.09;97383.53;30001;983;1877;-59
2021/11/16 01:31:58;;;;;;;;;;;;;;;4.61;84.99;97386.47;30001;983;1881;-59
2021/11/16 01:33:28;;;;;;;;;;;;;;;4.59;85.73;97389.38;30001;983;1864;-59
2021/11/16 01:34:01;;;;;;;;;;;;;;;4.59;86.02;97383.19;30001;983;1873;-60
2021/11/16 01:34:34;;;;;;;;;;;;;;;4.57;85.70;97386.13;30001;982;1881;-58
2021/11/16 01:35:06;;;;;;;;;;;;;;;4.58;86.03;97385.06;30001;982;1877;-58
2021/11/16 01:35:37;;;;;;;;;;;;;;;4.59;86.32;97392.06;30001;982;1882;-59
2021/11/16 01:36:09;;;;;;;;;;;;;;;4.59;86.23;97383.19;30001;982;1877;-59
2021/11/16 01:36:40;;;;;;;;;;;;;;;4.59;86.06;97383.19;30001;982;1882;-60
2021/11/16 01:37:11;;;;;;;;;;;;;;;4.59;86.34;97388.56;30001;983;1876;-58
2021/11/16 01:37:42;;;;;;;;;;;;;;;4.60;86.13;97385.66;30001;983;1881;-60
2021/11/16 01:38:16;;;;;;;;;;;;;;;4.60;86.36;97382.97;30001;983;1877;-60
2021/11/16 01:38:49;;;;;;;;;;;;;;;4.60;86.19;97384.84;30001;983;1863;-59
2021/11/16 01:39:21;;;;;;;;;;;;;;;4.62;86.31;97382.72;30001;983;1872;-59
2021/11/16 01:39:52;;;;;;;;;;;;;;;4.61;86.60;97376.53;30001;983;1881;-59
2021/11/16 01:40:23;;;;;;;;;;;;;;;4.61;86.49;97381.91;30001;983;1877;-59
2021/11/16 01:40:54;;;;;;;;;;;;;;;4.61;86.63;97381.91;30001;983;1881;-60
2021/11/16 01:41:26;;;;;;;;;;;;;;;4.61;86.49;97384.59;30001;983;1877;-59
2021/11/16 01:42:00;;;;;;;;;;;;;;;4.62;86.77;97388.91;30001;982;1881;-59
2021/11/16 01:42:32;;;;;;;;;;;;;;;4.63;86.54;97379.78;30001;982;1877;-60
2021/11/16 01:43:07;;;;;;;;;;;;;;;4.64;86.71;97385.97;30001;982;1882;-58
2021/11/16 01:43:38;;;;;;;;;;;;;;;4.64;86.32;97376.03;30001;982;1877;-59
2021/11/16 01:44:09;;;;;;;;;;;;;;;4.63;86.22;97384.34;30001;982;1864;-60
2021/11/16 01:44:40;;;;;;;;;;;;;;;4.61;86.20;97376.53;30001;983;1872;-60
2021/11/16 01:45:12;;;;;;;;;;;;;;;4.61;86.46;97381.91;30001;983;1881;-59
2021/11/16 01:45:43;;;;;;;;;;;;;;;4.61;86.37;97381.91;30001;983;1877;-59
2021/11/16 01:46:15;;;;;;;;;;;;;;;4.61;86.54;97381.09;30001;983;1881;-58
2021/11/16 01:46:45;;;;;;;;;;;;;;;4.61;86.41;97373.84;30001;983;1877;-56
2021/11/16 01:47:17;;;;;;;;;;;;;;;4.61;86.53;97375.72;30001;983;1881;-59
2021/11/16 01:47:49;;;;;;;;;;;;;;;4.62;86.68;97378.16;30001;983;1877;-60
2021/11/16 01:48:21;;;;;;;;;;;;;;;4.62;86.40;97375.47;30001;983;1881;-58
2021/11/16 01:48:53;;;;;;;;;;;;;;;4.63;86.71;97374.41;30001;983;1877;-58
2021/11/16 01:49:25;;;;;;;;;;;;;;;4.64;86.36;97376.03;30001;982;1864;-59
2021/11/16 01:49:56;;;;;;;;;;;;;;;4.63;86.58;97369.03;30001;982;1873;-59
2021/11/16 01:50:28;;;;;;;;;;;;;;;4.64;86.52;97378.72;30001;982;1881;-59
2021/11/16 01:51:00;;;;;;;;;;;;;;;4.65;86.53;97382.25;30001;982;1860;-58
2021/11/16 01:51:31;;;;;;;;;;;;;;;4.63;86.41;97374.41;30001;982;1877;-61
2021/11/16 01:52:02;;;;;;;;;;;;;;;4.64;86.28;97376.03;30001;983;1876;-59
2021/11/16 01:52:33;;;;;;;;;;;;;;;4.64;86.29;97375.22;30001;983;1881;-59
2021/11/16 01:53:04;;;;;;;;;;;;;;;4.63;86.45;97377.09;30001;983;1877;-58
2021/11/16 01:53:36;;;;;;;;;;;;;;;4.63;86.51;97371.72;30001;983;1864;-56
2021/11/16 01:54:07;;;;;;;;;;;;;;;4.64;86.28;97380.59;30001;983;1872;-59
2021/11/16 01:54:39;;;;;;;;;;;;;;;4.63;86.07;97379.78;30001;983;1881;-57
2021/11/16 01:55:11;;;;;;;;;;;;;;;4.63;86.08;97379.78;30001;983;1877;-58
2021/11/16 01:55:42;;;;;;;;;;;;;;;4.64;86.25;97373.34;30001;983;1881;-59
2021/11/16 01:56:13;;;;;;;;;;;;;;;4.64;86.12;97385.97;30001;983;1859;-59
2021/11/16 01:56:46;;;;;;;;;;;;;;;4.64;86.27;97375.22;30001;983;1877;-59
2021/11/16 01:57:17;;;;;;;;;;;;;;;4.64;86.42;97378.72;30001;982;1877;-58
2021/11/16 01:57:49;;;;;;;;;;;;;;;4.63;86.42;97378.97;30001;982;1881;-60
2021/11/16 01:58:20;;;;;;;;;;;;;;;4.62;86.78;97378.16;30001;982;1877;-59
2021/11/16 01:58:51;;;;;;;;;;;;;;;4.62;86.82;97383.53;30001;982;1882;-59
2021/11/16 01:59:22;;;;;;;;;;;;;;;4.63;86.67;97378.97;30001;983;1876;-59
2021/11/16 01:59:53;;;;;;;;;;;;;;;4.63;86.90;97382.47;30001;983;1881;-59
2021/11/16 02:00:26;;;;;;;;;;;;;;;4.63;86.84;97384.34;30001;983;1806;-59
2021/11/16 02:00:57;;;;;;;;;;;;;;;4.63;86.81;97385.16;30001;983;1881;-59
2021/11/16 02:01:29;;;;;;;;;;;;;;;4.66;86.70;97384.69;30001;983;1859;-57
2021/11/16 02:02:01;;;;;;;;;;;;;;;4.64;86.75;97381.41;30001;983;1877;-59
2021/11/16 02:02:32;;;;;;;;;;;;;;;4.64;86.96;97370.66;30001;983;1877;-59
2021/11/16 02:03:04;;;;;;;;;;;;;;;4.64;86.78;97381.41;30001;983;1881;-59
2021/11/16 02:03:37;;;;;;;;;;;;;;;4.64;86.74;97381.41;30001;982;1877;-59
2021/11/16 02:04:08;;;;;;;;;;;;;;;4.64;86.56;97381.41;30001;982;1881;-60
2021/11/16 02:04:40;;;;;;;;;;;;;;;4.64;86.09;97383.28;30001;982;1877;-59
2021/11/16 02:05:12;;;;;;;;;;;;;;;4.63;86.28;97374.41;30001;982;1881;-59
2021/11/16 02:05:45;;;;;;;;;;;;;;;4.63;85.94;97377.09;30001;982;1877;-58
2021/11/16 02:06:20;;;;;;;;;;;;;;;4.62;86.16;97375.47;30001;982;1882;-59
2021/11/16 02:06:51;;;;;;;;;;;;;;;4.63;86.08;97370.91;30001;982;1860;-59
2021/11/16 02:07:22;;;;;;;;;;;;;;;4.62;85.87;97378.16;30001;983;1876;-59
2021/11/16 02:07:53;;;;;;;;;;;;;;;4.62;85.81;97377.34;30001;983;1876;-59
2021/11/16 02:08:25;;;;;;;;;;;;;;;4.61;86.12;97376.53;30001;983;1881;-59
2021/11/16 02:08:56;;;;;;;;;;;;;;;4.63;86.33;97373.59;30001;983;1877;-59
2021/11/16 02:09:28;;;;;;;;;;;;;;;4.63;86.28;97373.59;30001;983;1881;-59
2021/11/16 02:10:00;;;;;;;;;;;;;;;4.64;86.04;97375.22;30001;983;1877;-58
2021/11/16 02:10:31;;;;;;;;;;;;;;;4.65;86.29;97375.00;30001;983;1881;-59
2021/11/16 02:11:02;;;;;;;;;;;;;;;4.65;86.18;97372.28;30001;983;1877;-59
2021/11/16 02:11:33;;;;;;;;;;;;;;;4.66;86.33;97379.31;30001;982;1881;-60
2021/11/16 02:12:05;;;;;;;;;;;;;;;4.67;86.30;97375.56;30001;982;1859;-59
2021/11/16 02:12:36;;;;;;;;;;;;;;;4.65;86.21;97372.28;30001;982;1877;-59
2021/11/16 02:13:07;;;;;;;;;;;;;;;4.66;86.23;97373.94;30001;982;1877;-60
2021/11/16 02:13:38;;;;;;;;;;;;;;;4.64;86.10;97373.34;30001;982;1882;-59
2021/11/16 02:14:10;;;;;;;;;;;;;;;4.64;85.71;97370.66;30001;982;1877;-59
2021/11/16 02:14:41;;;;;;;;;;;;;;;4.63;85.92;97373.59;30001;983;1881;-60
2021/11/16 02:15:12;;;;;;;;;;;;;;;4.63;86.05;97379.78;30001;983;1877;-56
2021/11/16 02:15:43;;;;;;;;;;;;;;;4.62;86.01;97375.47;30001;983;1881;-58
2021/11/16 02:16:15;;;;;;;;;;;;;;;4.61;86.01;97371.16;30001;983;1877;-58
2021/11/16 02:16:46;;;;;;;;;;;;;;;4.60;86.05;97366.84;30001;983;1881;-59
2021/11/16 02:17:18;;;;;;;;;;;;;;;4.61;86.05;97371.16;30001;983;1859;-58
2021/11/16 02:17:48;;;;;;;;;;;;;;;4.60;86.13;97366.00;30001;983;1877;-58
2021/11/16 02:18:20;;;;;;;;;;;;;;;4.61;86.06;97368.47;30001;983;1859;-59
2021/11/16 02:18:51;;;;;;;;;;;;;;;4.60;86.20;97364.16;30001;982;1877;-58
2021/11/16 02:19:22;;;;;;;;;;;;;;;4.61;86.21;97363.09;30001;982;1877;-59
2021/11/16 02:19:53;;;;;;;;;;;;;;;4.61;86.00;97364.97;30001;982;1864;-59
2021/11/16 02:20:28;;;;;;;;;;;;;;;4.59;86.25;97367.88;30001;982;1873;-58
2021/11/16 02:20:59;;;;;;;;;;;;;;;4.59;86.01;97361.69;30001;982;1882;-58
2021/11/16 02:21:30;;;;;;;;;;;;;;;4.60;86.42;97368.72;30001;982;1877;-56
2021/11/16 02:22:02;;;;;;;;;;;;;;;4.60;86.13;97366.00;30001;983;1881;-59
2021/11/16 02:22:33;;;;;;;;;;;;;;;4.59;86.29;97362.50;30001;983;1877;-60
2021/11/16 02:23:05;;;;;;;;;;;;;;;4.59;86.29;97362.50;30001;983;1881;-59
2021/11/16 02:23:38;;;;;;;;;;;;;;;4.59;86.16;97362.50;30001;983;1877;-58
2021/11/16 02:24:10;;;;;;;;;;;;;;;4.59;86.13;97367.88;30001;983;1881;-59
2021/11/16 02:24:41;;;;;;;;;;;;;;;4.59;86.28;97357.13;30001;983;1877;-59
2021/11/16 02:25:12;;;;;;;;;;;;;;;4.58;86.15;97363.56;30001;983;1864;-56
2021/11/16 02:25:45;;;;;;;;;;;;;;;4.58;86.43;97360.88;30001;983;1873;-59
2021/11/16 02:26:16;;;;;;;;;;;;;;;4.57;86.73;97361.94;30001;982;1881;-59
2021/11/16 02:26:48;;;;;;;;;;;;;;;4.58;86.79;97360.06;30001;982;1877;-59
2021/11/16 02:27:18;;;;;;;;;;;;;;;4.57;86.51;97359.25;30001;982;1882;-58
2021/11/16 02:27:49;;;;;;;;;;;;;;;4.59;86.86;97364.37;30001;982;1877;-57
2021/11/16 02:28:21;;;;;;;;;;;;;;;4.58;86.57;97357.38;30001;982;1882;-59
2021/11/16 02:28:53;;;;;;;;;;;;;;;4.57;86.42;97361.94;30001;982;1877;-59
2021/11/16 02:29:24;;;;;;;;;;;;;;;4.57;86.48;97361.94;30001;982;1882;-59
2021/11/16 02:29:55;;;;;;;;;;;;;;;4.59;86.59;97356.31;30001;983;1859;-59
2021/11/16 02:30:26;;;;;;;;;;;;;;;4.57;86.36;97358.44;30001;983;1877;-55
2021/11/16 02:30:57;;;;;;;;;;;;;;;4.56;86.42;97360.31;30001;983;1859;-56
2021/11/16 02:31:28;;;;;;;;;;;;;;;4.56;86.39;97359.50;30001;983;1877;-59
2021/11/16 02:31:59;;;;;;;;;;;;;;;4.56;86.24;97352.25;30001;983;1877;-59
2021/11/16 02:32:30;;;;;;;;;;;;;;;4.57;86.28;97364.63;30001;983;1881;-55
2021/11/16 02:33:02;;;;;;;;;;;;;;;4.58;86.43;97362.75;30001;985;1855;-60
2021/11/16 02:33:33;;;;;;;;;;;;;;;4.58;86.53;97358.19;30001;983;1881;-58
2021/11/16 02:34:05;;;;;;;;;;;;;;;4.57;86.42;97353.06;30001;982;1881;-59
2021/11/16 02:34:36;;;;;;;;;;;;;;;4.56;86.28;97354.94;30001;982;1886;-59
2021/11/16 02:35:07;;;;;;;;;;;;;;;4.57;86.11;97359.25;30001;982;1882;-60
2021/11/16 02:35:38;;;;;;;;;;;;;;;4.57;86.52;97358.44;30001;982;1886;-59
2021/11/16 02:36:09;;;;;;;;;;;;;;;4.57;86.24;97359.25;30001;982;1882;-59
2021/11/16 02:36:41;;;;;;;;;;;;;;;4.58;86.34;97358.19;30001;983;1885;-59
2021/11/16 02:37:12;;;;;;;;;;;;;;;4.59;86.13;97362.50;30001;983;1881;-58
2021/11/16 02:37:43;;;;;;;;;;;;;;;4.59;86.14;97362.50;30001;983;1885;-60
2021/11/16 02:38:16;;;;;;;;;;;;;;;4.59;86.12;97359.00;30001;983;1863;-60
2021/11/16 02:38:47;;;;;;;;;;;;;;;4.57;86.12;97353.06;30001;983;1881;-59
2021/11/16 02:39:18;;;;;;;;;;;;;;;4.54;86.12;97354.38;30001;983;1881;-60
2021/11/16 02:39:49;;;;;;;;;;;;;;;4.54;86.45;97354.38;30001;983;1886;-60
2021/11/16 02:40:20;;;;;;;;;;;;;;;4.55;86.14;97345.25;30001;983;1881;-60
2021/11/16 02:40:53;;;;;;;;;;;;;;;4.56;85.96;97346.88;30001;983;1885;-56
2021/11/16 02:41:29;;;;;;;;;;;;;;;4.58;85.75;97349.31;30001;982;1881;-60
2021/11/16 02:42:02;;;;;;;;;;;;;;;4.58;85.70;97350.13;30001;982;1886;-59
2021/11/16 02:42:34;;;;;;;;;;;;;;;4.58;85.83;97350.13;30001;982;1882;-59
2021/11/16 02:43:05;;;;;;;;;;;;;;;4.56;85.96;97352.25;30001;982;1868;-59
2021/11/16 02:43:37;;;;;;;;;;;;;;;4.55;86.16;97345.25;30001;982;1877;-59
2021/11/16 02:44:08;;;;;;;;;;;;;;;4.54;86.18;97346.28;30001;983;1885;-59
2021/11/16 02:44:41;;;;;;;;;;;;;;;4.56;86.10;97340.69;30001;983;1881;-60
2021/11/16 02:45:12;;;;;;;;;;;;;;;4.55;86.36;97345.25;30001;983;1885;-58
2021/11/16 02:45:43;;;;;;;;;;;;;;;4.57;86.39;97358.44;30001;983;1881;-59
2021/11/16 02:46:14;;;;;;;;;;;;;;;4.54;86.22;97349.00;30002;983;1885;-59
2021/11/16 02:46:47;;;;;;;;;;;;;;;4.54;86.08;97349.00;30001;983;1881;-59
2021/11/16 02:47:18;;;;;;;;;;;;;;;4.55;86.27;97347.13;30002;983;1886;-59
2021/11/16 02:47:49;;;;;;;;;;;;;;;4.55;86.15;97345.25;30002;983;1881;-60
2021/11/16 02:48:20;;;;;;;;;;;;;;;4.56;86.23;97346.88;30002;983;1868;-59
2021/11/16 02:48:51;;;;;;;;;;;;;;;4.55;86.14;97345.25;30002;982;1860;-59
2021/11/16 02:49:21;;;;;;;;;;;;;;;4.55;86.29;97345.25;30002;982;1886;-59
2021/11/16 02:49:54;;;;;;;;;;;;;;;4.56;86.41;97352.25;30002;982;1882;-59
2021/11/16 02:50:25;;;;;;;;;;;;;;;4.57;86.37;97347.69;30002;982;1886;-58
2021/11/16 02:50:57;;;;;;;;;;;;;;;4.57;86.38;97337.75;30002;982;1882;-59
2021/11/16 02:51:31;;;;;;;;;;;;;;;4.58;86.21;97347.44;30002;983;1885;-58
2021/11/16 02:52:08;;;;;;;;;;;;;;;4.56;86.43;97344.19;30002;983;1881;-59